Time;durP1;ratioP1;P1;durP2;ratioP2;P2;SDS_P1;SDS_P2;PMS_P1;PMS_P2;Temp;Humidity;BMP_temperature;BMP_pressure;BME280_temperature;BME280_humidity;BME280_pressure;Samples;Min_cycle;Max_cycle;Signal;HPM_P1;HPM_P2
2023/05/22 00:02:14;;;;;;;35.55;26.63;;;;;;;;;;5040406;28;20047;-76
2023/05/22 00:04:41;;;;;;;39.22;27.13;;;;;;;;;;5041501;28;20047;-76
2023/05/22 00:07:07;;;;;;;36.90;26.58;;;;;;;;;;5043417;28;20045;-76
2023/05/22 00:09:33;;;;;;;42.50;26.90;;;;;;;;;;5044521;28;20048;-76
2023/05/22 00:11:59;;;;;;;46.35;28.77;;;;;;;;;;5039640;28;20057;-75
2023/05/22 00:14:25;;;;;;;44.53;28.00;;;;;;;;;;5042509;28;20053;-76
2023/05/22 00:16:52;;;;;;;36.17;26.13;;;;;;;;;;5043280;28;20136;-76
2023/05/22 00:19:21;;;;;;;40.83;27.10;;;;;;;;;;5042777;28;20087;-76
2023/05/22 00:21:50;;;;;;;41.35;27.27;;;;;;;;;;5043527;28;20044;-76
2023/05/22 00:24:16;;;;;;;42.40;26.40;;;;;;;;;;5045956;28;20090;-76
2023/05/22 00:26:42;;;;;;;39.58;27.40;;;;;;;;;;5022865;28;20590;-76
2023/05/22 00:29:08;;;;;;;36.92;26.52;;;;;;;;;;5040714;28;20041;-76
2023/05/22 00:31:34;;;;;;;36.63;26.38;;;;;;;;;;5046438;28;20045;-76
2023/05/22 00:34:00;;;;;;;41.63;26.58;;;;;;;;;;5042226;28;20506;-76
2023/05/22 00:36:26;;;;;;;48.90;28.75;;;;;;;;;;5038100;28;20103;-75
2023/05/22 00:38:52;;;;;;;44.13;27.00;;;;;;;;;;5042532;28;20041;-76
2023/05/22 00:41:18;;;;;;;46.65;27.95;;;;;;;;;;5039891;28;20034;-76
2023/05/22 00:43:44;;;;;;;42.00;28.58;;;;;;;;;;5043698;28;20041;-76
2023/05/22 00:46:11;;;;;;;43.53;28.10;;;;;;;;;;5047764;28;20106;-76
2023/05/22 00:48:37;;;;;;;37.15;27.98;;;;;;;;;;5025494;28;20041;-76
2023/05/22 00:51:03;;;;;;;47.17;28.13;;;;;;;;;;5043032;28;20132;-76
2023/05/22 00:53:30;;;;;;;44.03;29.63;;;;;;;;;;5042198;28;20040;-76
2023/05/22 00:55:56;;;;;;;40.63;27.92;;;;;;;;;;5037452;28;20121;-76
2023/05/22 00:58:25;;;;;;;41.50;29.60;;;;;;;;;;5043274;28;20140;-76
2023/05/22 01:00:51;;;;;;;37.90;28.30;;;;;;;;;;5047566;28;20040;-76
2023/05/22 01:03:18;;;;;;;40.35;28.13;;;;;;;;;;5043909;28;20041;-76
2023/05/22 01:05:44;;;;;;;39.65;28.35;;;;;;;;;;5041423;28;20514;-76
2023/05/22 01:08:10;;;;;;;39.53;28.77;;;;;;;;;;5052297;28;20407;-76
2023/05/22 01:10:38;;;;;;;41.97;28.83;;;;;;;;;;5038911;28;20052;-76
2023/05/22 01:13:10;;;;;;;41.55;29.25;;;;;;;;;;5036208;28;20052;-76
2023/05/22 01:15:52;;;;;;;38.58;28.27;;;;;;;;;;5002514;28;20374;-76
2023/05/22 01:18:31;;;;;;;41.60;29.92;;;;;;;;;;5039919;28;20371;-76
2023/05/22 01:21:03;;;;;;;35.22;28.13;;;;;;;;;;5042117;28;20053;-76
2023/05/22 01:23:48;;;;;;;37.70;28.05;;;;;;;;;;5028684;28;20492;-76
2023/05/22 01:26:29;;;;;;;40.97;29.67;;;;;;;;;;5045692;28;20080;-76
2023/05/22 01:28:58;;;;;;;41.50;27.65;;;;;;;;;;5041150;28;20508;-76
2023/05/22 01:31:25;;;;;;;33.20;26.23;;;;;;;;;;5023596;28;20483;-76
2023/05/22 01:33:52;;;;;;;37.15;27.55;;;;;;;;;;5044911;28;20115;-76
2023/05/22 01:36:21;;;;;;;40.47;28.90;;;;;;;;;;5041702;28;20156;-76
2023/05/22 01:38:48;;;;;;;32.45;26.02;;;;;;;;;;5043209;28;20083;-76
2023/05/22 01:41:14;;;;;;;35.13;27.52;;;;;;;;;;5039299;28;20487;-76
2023/05/22 01:43:41;;;;;;;34.38;27.40;;;;;;;;;;5046490;28;20128;-76
2023/05/22 01:46:07;;;;;;;35.67;26.48;;;;;;;;;;5053039;28;20045;-76
2023/05/22 01:48:33;;;;;;;35.90;26.60;;;;;;;;;;5046591;28;20041;-76
2023/05/22 01:51:02;;;;;;;37.47;27.83;;;;;;;;;;5048443;28;20048;-76
2023/05/22 01:53:47;;;;;;;39.85;29.40;;;;;;;;;;5039810;28;20053;-76
2023/05/22 01:56:15;;;;;;;34.83;27.25;;;;;;;;;;5040225;28;20052;-76
2023/05/22 01:58:47;;;;;;;34.72;27.40;;;;;;;;;;5041122;28;20033;-76
2023/05/22 02:01:14;;;;;;;39.67;28.92;;;;;;;;;;5027947;28;20080;-76
2023/05/22 02:03:41;;;;;;;40.75;28.98;;;;;;;;;;5043356;28;20482;-76
2023/05/22 02:06:09;;;;;;;39.88;29.25;;;;;;;;;;5043714;28;20174;-76
2023/05/22 02:08:38;;;;;;;37.25;29.50;;;;;;;;;;5023997;28;20072;-76
2023/05/22 02:11:04;;;;;;;39.53;30.15;;;;;;;;;;5042239;28;20098;-76
2023/05/22 02:13:30;;;;;;;39.28;30.05;;;;;;;;;;5040929;28;20076;-76
2023/05/22 02:15:57;;;;;;;45.05;31.20;;;;;;;;;;5039664;28;20049;-76
2023/05/22 02:18:28;;;;;;;43.05;30.75;;;;;;;;;;5027475;28;20095;-75
2023/05/22 02:20:55;;;;;;;41.63;31.77;;;;;;;;;;5012322;28;20080;-75
2023/05/22 02:23:21;;;;;;;43.45;31.48;;;;;;;;;;5041580;28;20048;-75
2023/05/22 02:25:47;;;;;;;46.30;31.58;;;;;;;;;;5035554;28;20046;-75
2023/05/22 02:28:14;;;;;;;47.80;31.00;;;;;;;;;;5022724;28;20057;-76
2023/05/22 02:30:40;;;;;;;46.70;30.77;;;;;;;;;;5040649;28;21998;-76
2023/05/22 02:33:08;;;;;;;47.22;28.73;;;;;;;;;;5049242;28;20073;-76
2023/05/22 02:35:34;;;;;;;41.72;29.25;;;;;;;;;;5033088;28;20368;-76
2023/05/22 02:38:01;;;;;;;44.55;29.92;;;;;;;;;;5041190;28;20376;-76
2023/05/22 02:40:27;;;;;;;41.75;29.08;;;;;;;;;;5042238;28;20060;-76
2023/05/22 02:42:53;;;;;;;43.70;28.67;;;;;;;;;;5037677;28;20037;-76
2023/05/22 02:45:19;;;;;;;42.13;29.23;;;;;;;;;;5040204;28;20041;-76
2023/05/22 02:47:45;;;;;;;47.55;30.83;;;;;;;;;;5037719;28;20115;-76
2023/05/22 02:50:12;;;;;;;45.03;28.30;;;;;;;;;;5045863;28;20128;-76
2023/05/22 02:52:38;;;;;;;44.92;29.58;;;;;;;;;;5055538;28;20048;-76
2023/05/22 02:55:04;;;;;;;42.13;27.40;;;;;;;;;;5055942;28;20450;-76
2023/05/22 02:57:31;;;;;;;49.10;30.98;;;;;;;;;;5055485;28;20087;-76
2023/05/22 02:59:58;;;;;;;49.58;30.52;;;;;;;;;;5046004;28;20305;-76
2023/05/22 03:02:27;;;;;;;43.33;28.90;;;;;;;;;;5043933;28;20049;-76
2023/05/22 03:04:53;;;;;;;45.45;28.48;;;;;;;;;;5046251;28;20045;-76
2023/05/22 03:07:20;;;;;;;45.30;30.15;;;;;;;;;;5040394;28;20061;-76
2023/05/22 03:09:46;;;;;;;56.55;29.25;;;;;;;;;;5042911;28;20062;-76
2023/05/22 03:12:12;;;;;;;49.60;30.13;;;;;;;;;;5042189;28;20752;-76
2023/05/22 03:14:38;;;;;;;45.67;29.58;;;;;;;;;;5045203;28;20235;-76
2023/05/22 03:17:04;;;;;;;50.63;30.98;;;;;;;;;;5044325;28;20060;-76
2023/05/22 03:19:30;;;;;;;44.33;29.50;;;;;;;;;;5029515;28;20119;-76
2023/05/22 03:21:56;;;;;;;48.53;28.52;;;;;;;;;;5045755;28;20133;-76
2023/05/22 03:24:23;;;;;;;47.28;30.13;;;;;;;;;;5042738;28;20482;-76
2023/05/22 03:26:49;;;;;;;54.92;31.70;;;;;;;;;;5030029;28;20044;-76
2023/05/22 03:29:15;;;;;;;51.55;32.45;;;;;;;;;;5029659;28;20060;-76
2023/05/22 03:31:41;;;;;;;48.28;32.47;;;;;;;;;;5041537;28;20037;-76
2023/05/22 03:34:07;;;;;;;50.08;33.97;;;;;;;;;;5044531;28;20082;-76
2023/05/22 03:36:33;;;;;;;52.67;33.65;;;;;;;;;;5013714;28;20079;-76
2023/05/22 03:38:59;;;;;;;53.72;34.30;;;;;;;;;;5027419;28;20045;-76
2023/05/22 03:41:25;;;;;;;55.53;36.08;;;;;;;;;;5021789;28;20085;-76
2023/05/22 03:43:51;;;;;;;57.30;36.70;;;;;;;;;;5042402;28;20037;-76
2023/05/22 03:46:17;;;;;;;54.28;35.83;;;;;;;;;;5016053;28;20075;-76
2023/05/22 03:48:43;;;;;;;52.22;36.08;;;;;;;;;;5028683;28;20045;-76
2023/05/22 03:51:09;;;;;;;50.72;35.53;;;;;;;;;;5028758;28;20077;-76
2023/05/22 03:53:36;;;;;;;53.58;33.35;;;;;;;;;;5023824;28;20053;-76
2023/05/22 03:56:02;;;;;;;52.00;33.22;;;;;;;;;;5047910;28;20336;-76
2023/05/22 03:58:28;;;;;;;51.03;33.03;;;;;;;;;;5031543;28;20147;-76
2023/05/22 04:00:57;;;;;;;46.08;31.25;;;;;;;;;;5040171;28;20036;-76
2023/05/22 04:03:23;;;;;;;48.25;32.42;;;;;;;;;;5020543;28;20077;-76
2023/05/22 04:05:50;;;;;;;45.15;31.42;;;;;;;;;;5040145;28;20045;-76
2023/05/22 04:08:16;;;;;;;45.17;31.08;;;;;;;;;;5043528;28;20049;-76
2023/05/22 04:10:45;;;;;;;47.80;30.38;;;;;;;;;;5047554;28;20052;-76
2023/05/22 04:13:15;;;;;;;43.55;28.88;;;;;;;;;;5046632;28;20049;-76
2023/05/22 04:15:42;;;;;;;40.70;28.60;;;;;;;;;;5048862;28;20045;-76
2023/05/22 04:18:08;;;;;;;43.28;28.52;;;;;;;;;;5045553;28;20475;-76
2023/05/22 04:20:34;;;;;;;43.58;29.75;;;;;;;;;;5045637;28;20049;-76
2023/05/22 04:23:00;;;;;;;44.70;29.00;;;;;;;;;;5043954;28;20049;-76
2023/05/22 04:25:26;;;;;;;38.75;27.05;;;;;;;;;;5037203;28;20099;-76
2023/05/22 04:27:52;;;;;;;31.35;19.60;;;;;;;;;;5034368;28;20041;-76
2023/05/22 04:30:18;;;;;;;33.45;19.15;;;;;;;;;;5017651;28;20124;-76
2023/05/22 04:32:44;;;;;;;29.25;15.88;;;;;;;;;;5034184;28;20042;-76
2023/05/22 04:35:12;;;;;;;25.17;16.40;;;;;;;;;;5033924;28;20486;-76
2023/05/22 04:37:44;;;;;;;26.73;16.58;;;;;;;;;;4999938;28;20439;-76
2023/05/22 04:40:11;;;;;;;27.58;16.83;;;;;;;;;;5046726;28;20127;-76
2023/05/22 04:42:41;;;;;;;27.05;16.75;;;;;;;;;;5053200;28;20052;-76
2023/05/22 04:45:07;;;;;;;22.10;15.02;;;;;;;;;;5054112;28;20037;-76
2023/05/22 04:47:33;;;;;;;23.42;15.35;;;;;;;;;;5035337;28;20499;-76
2023/05/22 04:50:01;;;;;;;26.30;14.98;;;;;;;;;;5053244;28;20040;-76
2023/05/22 04:52:27;;;;;;;25.60;14.23;;;;;;;;;;5052818;28;20049;-76
2023/05/22 04:54:54;;;;;;;24.95;12.73;;;;;;;;;;5047168;28;20041;-76
2023/05/22 04:57:20;;;;;;;19.20;11.93;;;;;;;;;;5041428;28;20049;-75
2023/05/22 04:59:47;;;;;;;21.70;12.80;;;;;;;;;;5040480;28;20049;-76
2023/05/22 05:02:15;;;;;;;24.48;12.02;;;;;;;;;;5048866;28;20068;-76
2023/05/22 05:04:42;;;;;;;23.08;11.50;;;;;;;;;;5044187;28;20037;-76
2023/05/22 05:07:08;;;;;;;21.80;13.55;;;;;;;;;;5044717;28;20047;-76
2023/05/22 05:09:34;;;;;;;24.15;12.38;;;;;;;;;;5038543;28;20128;-76
2023/05/22 05:12:00;;;;;;;22.25;12.65;;;;;;;;;;5036045;28;20125;-76
2023/05/22 05:14:26;;;;;;;33.38;13.25;;;;;;;;;;5049514;28;20060;-76
2023/05/22 05:16:53;;;;;;;26.15;13.20;;;;;;;;;;5039820;28;20108;-76
2023/05/22 05:19:22;;;;;;;22.40;12.05;;;;;;;;;;5010494;28;20136;-76
2023/05/22 05:21:48;;;;;;;39.75;12.15;;;;;;;;;;5031051;28;20045;-76
2023/05/22 05:24:18;;;;;;;25.77;12.07;;;;;;;;;;5035441;28;20041;-76
2023/05/22 05:26:44;;;;;;;21.60;11.90;;;;;;;;;;5052919;28;20128;-76
2023/05/22 05:29:11;;;;;;;24.52;10.13;;;;;;;;;;5037878;28;20375;-76
2023/05/22 05:31:37;;;;;;;20.48;10.88;;;;;;;;;;5015241;28;20061;-76
2023/05/22 05:34:03;;;;;;;22.25;11.00;;;;;;;;;;5050469;28;20131;-76
2023/05/22 05:36:30;;;;;;;18.65;9.73;;;;;;;;;;5034095;28;20076;-76
2023/05/22 05:38:57;;;;;;;17.27;9.98;;;;;;;;;;5034003;28;20042;-76
2023/05/22 05:41:23;;;;;;;17.48;9.75;;;;;;;;;;5034162;28;20117;-76
2023/05/22 05:43:52;;;;;;;18.50;10.07;;;;;;;;;;5015732;28;20357;-80
2023/05/22 05:46:18;;;;;;;21.90;10.30;;;;;;;;;;5015733;28;20090;-76
2023/05/22 05:48:45;;;;;;;18.52;9.75;;;;;;;;;;5033998;28;20048;-76
2023/05/22 05:51:11;;;;;;;13.35;9.07;;;;;;;;;;5050768;28;20057;-76
2023/05/22 05:53:38;;;;;;;15.82;8.88;;;;;;;;;;5053174;28;20075;-76
2023/05/22 05:56:05;;;;;;;17.83;9.07;;;;;;;;;;5034833;28;20088;-76
2023/05/22 05:58:31;;;;;;;17.02;9.57;;;;;;;;;;5053050;28;20598;-76
2023/05/22 06:00:57;;;;;;;25.33;10.57;;;;;;;;;;5050881;28;20037;-76
2023/05/22 06:03:24;;;;;;;21.25;10.27;;;;;;;;;;5052439;28;20149;-76
2023/05/22 06:05:50;;;;;;;18.75;10.40;;;;;;;;;;5053155;28;20045;-76
2023/05/22 06:08:18;;;;;;;18.98;10.55;;;;;;;;;;5033346;28;20048;-76
2023/05/22 06:10:45;;;;;;;18.42;10.32;;;;;;;;;;5046315;28;20099;-76
2023/05/22 06:13:12;;;;;;;23.48;11.02;;;;;;;;;;5018986;28;20392;-77
2023/05/22 06:15:38;;;;;;;22.00;10.95;;;;;;;;;;5015694;28;20106;-76
2023/05/22 06:18:04;;;;;;;22.30;11.40;;;;;;;;;;5031314;28;20050;-76
2023/05/22 06:20:30;;;;;;;23.85;12.55;;;;;;;;;;5043801;28;20128;-76
2023/05/22 06:22:58;;;;;;;24.83;11.65;;;;;;;;;;5033412;28;20049;-76
2023/05/22 06:25:25;;;;;;;30.95;13.18;;;;;;;;;;5045409;28;20061;-76
2023/05/22 06:27:51;;;;;;;32.70;11.90;;;;;;;;;;5018580;28;20053;-76
2023/05/22 06:30:18;;;;;;;25.33;11.38;;;;;;;;;;5038376;28;20071;-76
2023/05/22 06:32:44;;;;;;;26.00;11.55;;;;;;;;;;5036380;28;20124;-76
2023/05/22 06:35:10;;;;;;;32.35;12.98;;;;;;;;;;5036623;28;20085;-76
2023/05/22 06:37:37;;;;;;;30.40;12.65;;;;;;;;;;5036412;28;20124;-75
2023/05/22 06:40:04;;;;;;;19.15;11.05;;;;;;;;;;5047401;28;20037;-74
2023/05/22 06:42:30;;;;;;;20.63;11.45;;;;;;;;;;5055717;28;20045;-74
2023/05/22 06:44:57;;;;;;;17.67;10.43;;;;;;;;;;5055337;28;20589;-75
2023/05/22 06:47:23;;;;;;;17.90;10.55;;;;;;;;;;5050400;28;20083;-75
2023/05/22 06:49:49;;;;;;;21.10;11.07;;;;;;;;;;5036415;28;20099;-74
2023/05/22 06:52:15;;;;;;;22.00;10.93;;;;;;;;;;5035838;28;20049;-74
2023/05/22 06:54:41;;;;;;;19.70;10.40;;;;;;;;;;5018305;28;20046;-75
2023/05/22 06:57:08;;;;;;;22.02;12.15;;;;;;;;;;5036759;28;20042;-75
2023/05/22 06:59:34;;;;;;;20.55;12.10;;;;;;;;;;5055910;28;20116;-75
2023/05/22 07:02:00;;;;;;;23.52;11.57;;;;;;;;;;5052750;28;20056;-77
2023/05/22 07:04:26;;;;;;;26.50;13.63;;;;;;;;;;5036320;28;20500;-76
2023/05/22 07:06:52;;;;;;;24.23;14.32;;;;;;;;;;5056441;28;20080;-76
2023/05/22 07:09:19;;;;;;;22.55;12.90;;;;;;;;;;5049947;28;20530;-77
2023/05/22 07:11:46;;;;;;;25.27;13.38;;;;;;;;;;5021285;28;20100;-75
2023/05/22 07:14:12;;;;;;;26.38;13.45;;;;;;;;;;5037706;28;20052;-76
2023/05/22 07:16:39;;;;;;;25.73;13.20;;;;;;;;;;5053880;28;20056;-75
2023/05/22 07:19:05;;;;;;;30.73;13.90;;;;;;;;;;5037936;28;20072;-75
2023/05/22 07:21:34;;;;;;;25.40;12.60;;;;;;;;;;5055872;28;20071;-76
2023/05/22 07:24:02;;;;;;;22.35;11.60;;;;;;;;;;5055916;28;20045;-76
2023/05/22 07:26:28;;;;;;;24.45;12.07;;;;;;;;;;5055397;28;20049;-77
2023/05/22 07:28:54;;;;;;;31.42;13.40;;;;;;;;;;5036183;28;20085;-76
2023/05/22 07:31:20;;;;;;;24.75;12.60;;;;;;;;;;5053908;28;20491;-76
2023/05/22 07:33:47;;;;;;;23.00;12.45;;;;;;;;;;5054971;28;20055;-77
2023/05/22 07:36:13;;;;;;;26.40;10.90;;;;;;;;;;5055043;28;20040;-77
2023/05/22 07:38:39;;;;;;;23.92;11.18;;;;;;;;;;5043837;28;20037;-77
2023/05/22 07:41:05;;;;;;;24.35;12.32;;;;;;;;;;5048631;28;20037;-81
2023/05/22 07:43:31;;;;;;;20.38;11.10;;;;;;;;;;5062526;28;20041;-80
2023/05/22 07:45:57;;;;;;;18.45;10.68;;;;;;;;;;5038786;28;20041;-79
2023/05/22 07:48:23;;;;;;;20.40;9.68;;;;;;;;;;5060137;28;20048;-78
2023/05/22 07:50:50;;;;;;;19.83;9.98;;;;;;;;;;5057883;28;20045;-80
2023/05/22 07:53:16;;;;;;;18.33;9.15;;;;;;;;;;5061447;28;20499;-80
2023/05/22 07:55:42;;;;;;;14.85;9.15;;;;;;;;;;5061720;28;20052;-81
2023/05/22 07:58:09;;;;;;;19.23;9.10;;;;;;;;;;5044453;28;20492;-84
2023/05/22 08:00:35;;;;;;;18.13;8.18;;;;;;;;;;5029843;28;20468;-77
2023/05/22 08:03:01;;;;;;;14.52;8.52;;;;;;;;;;5047539;28;20045;-77
2023/05/22 08:05:27;;;;;;;17.15;8.45;;;;;;;;;;5035851;28;20047;-77
2023/05/22 08:07:53;;;;;;;12.65;7.10;;;;;;;;;;5046589;28;20037;-77
2023/05/22 08:10:19;;;;;;;15.57;8.18;;;;;;;;;;5036171;28;20096;-77
2023/05/22 08:12:46;;;;;;;12.23;7.28;;;;;;;;;;5052722;28;20053;-77
2023/05/22 08:15:12;;;;;;;12.45;6.82;;;;;;;;;;5048814;28;20045;-78
2023/05/22 08:17:38;;;;;;;13.27;7.13;;;;;;;;;;5022151;28;20050;-78
2023/05/22 08:20:04;;;;;;;13.43;7.03;;;;;;;;;;5033319;28;20456;-78
2023/05/22 08:22:30;;;;;;;10.27;6.20;;;;;;;;;;5049295;28;20120;-78
2023/05/22 08:24:56;;;;;;;10.02;6.30;;;;;;;;;;5053663;28;20076;-78
2023/05/22 08:27:22;;;;;;;10.02;6.28;;;;;;;;;;5007174;28;20091;-78
2023/05/22 08:29:48;;;;;;;10.73;6.45;;;;;;;;;;5037639;28;20124;-78
2023/05/22 08:32:15;;;;;;;10.00;6.63;;;;;;;;;;5048800;28;20178;-78
2023/05/22 08:34:41;;;;;;;12.82;6.75;;;;;;;;;;5054337;28;20124;-79
2023/05/22 08:37:08;;;;;;;10.88;6.10;;;;;;;;;;5055827;28;20113;-79
2023/05/22 08:39:34;;;;;;;8.80;5.60;;;;;;;;;;5052571;28;20049;-78
2023/05/22 08:42:02;;;;;;;8.15;5.72;;;;;;;;;;5041691;28;20049;-79
2023/05/22 08:44:28;;;;;;;9.05;5.95;;;;;;;;;;5020189;28;20125;-79
2023/05/22 08:46:58;;;;;;;8.43;5.97;;;;;;;;;;5024697;28;20045;-79
2023/05/22 08:49:24;;;;;;;7.75;5.88;;;;;;;;;;5054085;28;20055;-78
2023/05/22 08:51:55;;;;;;;8.07;6.22;;;;;;;;;;5053723;28;20056;-78
2023/05/22 08:54:22;;;;;;;9.05;5.90;;;;;;;;;;5054389;28;20052;-79
2023/05/22 08:56:48;;;;;;;8.48;6.15;;;;;;;;;;5027236;28;20041;-78
2023/05/22 08:59:15;;;;;;;8.50;6.18;;;;;;;;;;5049229;28;20071;-78
2023/05/22 09:01:41;;;;;;;9.90;5.93;;;;;;;;;;5054212;28;20036;-79
2023/05/22 09:04:09;;;;;;;9.95;6.40;;;;;;;;;;5054482;28;20084;-79
2023/05/22 09:06:37;;;;;;;10.35;6.38;;;;;;;;;;5054254;28;20037;-79
2023/05/22 09:09:03;;;;;;;9.10;5.90;;;;;;;;;;5041770;28;20048;-79
2023/05/22 09:11:30;;;;;;;11.93;6.07;;;;;;;;;;5045205;28;20121;-79
2023/05/22 09:14:08;;;;;;;10.82;5.75;;;;;;;;;;5034025;28;20049;-79
2023/05/22 09:16:43;;;;;;;8.63;5.63;;;;;;;;;;5033888;28;20053;-79
2023/05/22 09:19:09;;;;;;;7.10;5.90;;;;;;;;;;5034968;28;20445;-79
2023/05/22 09:21:36;;;;;;;9.43;6.55;;;;;;;;;;5034128;28;20049;-78
2023/05/22 09:24:02;;;;;;;10.43;6.68;;;;;;;;;;5045780;28;20072;-78
2023/05/22 09:26:28;;;;;;;10.07;7.50;;;;;;;;;;5053792;28;20059;-78
2023/05/22 09:28:56;;;;;;;9.15;7.68;;;;;;;;;;5040496;28;20099;-78
2023/05/22 09:31:22;;;;;;;8.70;7.72;;;;;;;;;;5035535;28;20084;-79
2023/05/22 09:33:48;;;;;;;10.20;8.30;;;;;;;;;;5049295;28;20483;-79
2023/05/22 09:36:14;;;;;;;11.90;9.05;;;;;;;;;;5033588;28;20041;-79
2023/05/22 09:38:40;;;;;;;11.00;8.30;;;;;;;;;;5047506;28;20046;-79
2023/05/22 09:41:07;;;;;;;10.38;9.07;;;;;;;;;;5033534;28;20088;-79
2023/05/22 09:43:33;;;;;;;12.52;9.18;;;;;;;;;;5032239;28;20056;-79
2023/05/22 09:46:03;;;;;;;10.38;9.10;;;;;;;;;;5036032;28;20045;-81
2023/05/22 09:48:29;;;;;;;10.82;8.85;;;;;;;;;;5035185;28;20045;-79
2023/05/22 09:50:57;;;;;;;12.88;10.00;;;;;;;;;;5048996;28;20076;-78
2023/05/22 09:53:26;;;;;;;12.30;9.73;;;;;;;;;;5032586;28;20460;-78
2023/05/22 09:55:53;;;;;;;15.27;10.25;;;;;;;;;;5045650;28;20048;-78
2023/05/22 09:58:22;;;;;;;13.63;9.27;;;;;;;;;;5034070;28;20048;-78
2023/05/22 10:00:49;;;;;;;12.18;9.75;;;;;;;;;;5040782;28;20041;-77
2023/05/22 10:03:16;;;;;;;13.35;10.02;;;;;;;;;;5058508;28;20041;-77
2023/05/22 10:05:50;;;;;;;17.00;11.43;;;;;;;;;;5045312;28;20050;-77
2023/05/22 10:08:27;;;;;;;16.52;10.55;;;;;;;;;;5029844;28;20052;-79
2023/05/22 10:10:53;;;;;;;14.13;10.88;;;;;;;;;;5054660;28;20059;-78
2023/05/22 10:13:19;;;;;;;15.93;11.35;;;;;;;;;;5038689;28;20060;-78
2023/05/22 10:15:49;;;;;;;16.20;11.93;;;;;;;;;;5056447;28;20041;-78
2023/05/22 10:18:16;;;;;;;14.30;11.82;;;;;;;;;;5038719;28;20041;-78
2023/05/22 10:20:42;;;;;;;14.10;11.07;;;;;;;;;;5056965;28;20144;-78
2023/05/22 10:23:12;;;;;;;15.00;11.40;;;;;;;;;;5038518;28;20456;-78
2023/05/22 10:25:38;;;;;;;16.23;12.05;;;;;;;;;;5022104;28;20557;-78
2023/05/22 10:28:04;;;;;;;15.25;11.40;;;;;;;;;;5046472;28;20526;-78
2023/05/22 10:30:39;;;;;;;16.38;11.63;;;;;;;;;;5053312;28;20091;-78
2023/05/22 10:33:22;;;;;;;14.27;11.37;;;;;;;;;;5038852;28;20114;-78
2023/05/22 10:35:51;;;;;;;15.95;12.32;;;;;;;;;;5056407;28;20103;-78
2023/05/22 10:38:26;;;;;;;15.45;11.80;;;;;;;;;;5059151;28;20115;-78
2023/05/22 10:40:52;;;;;;;16.90;11.88;;;;;;;;;;5076684;28;20098;-78
2023/05/22 10:43:20;;;;;;;16.08;12.70;;;;;;;;;;5073159;28;20079;-79
2023/05/22 10:45:46;;;;;;;15.57;12.10;;;;;;;;;;5058521;28;20087;-77
2023/05/22 10:48:12;;;;;;;17.88;11.57;;;;;;;;;;5039162;28;20056;-78
2023/05/22 10:50:39;;;;;;;17.17;12.02;;;;;;;;;;5053853;28;20041;-78
2023/05/22 10:53:19;;;;;;;14.30;11.10;;;;;;;;;;5050644;28;20111;-78
2023/05/22 10:55:49;;;;;;;20.80;11.15;;;;;;;;;;5050269;28;20052;-78
2023/05/22 10:58:15;;;;;;;16.27;11.52;;;;;;;;;;5029663;28;20053;-78
2023/05/22 11:00:41;;;;;;;16.60;11.25;;;;;;;;;;5050604;28;20525;-78
2023/05/22 11:03:08;;;;;;;17.38;11.50;;;;;;;;;;5050027;28;20558;-78
2023/05/22 11:05:35;;;;;;;17.52;11.20;;;;;;;;;;5052367;28;20395;-78
2023/05/22 11:08:20;;;;;;;16.90;11.23;;;;;;;;;;5057554;28;20051;-78
2023/05/22 11:10:53;;;;;;;18.55;11.18;;;;;;;;;;5044422;28;20060;-78
2023/05/22 11:13:19;;;;;;;17.50;11.57;;;;;;;;;;5054096;28;20045;-78
2023/05/22 11:15:45;;;;;;;16.60;11.38;;;;;;;;;;5051960;28;20045;-78
2023/05/22 11:18:13;;;;;;;19.25;12.73;;;;;;;;;;5052104;28;20045;-78
2023/05/22 11:20:39;;;;;;;17.02;11.23;;;;;;;;;;5048060;28;21621;-78
2023/05/22 11:23:06;;;;;;;19.63;12.07;;;;;;;;;;5052576;28;20037;-78
2023/05/22 11:25:36;;;;;;;20.75;11.90;;;;;;;;;;5043180;28;20175;-78
2023/05/22 11:28:03;;;;;;;18.80;12.35;;;;;;;;;;5044056;28;20041;-78
2023/05/22 11:30:32;;;;;;;17.73;12.40;;;;;;;;;;5051616;28;20045;-78
2023/05/22 11:32:58;;;;;;;20.00;12.23;;;;;;;;;;5054128;28;20041;-78
2023/05/22 11:35:24;;;;;;;15.65;11.73;;;;;;;;;;5021805;28;20051;-78
2023/05/22 11:37:51;;;;;;;16.90;12.30;;;;;;;;;;5036822;28;20124;-77
2023/05/22 11:40:19;;;;;;;17.50;11.48;;;;;;;;;;5049389;28;20046;-78
2023/05/22 11:42:46;;;;;;;26.77;12.35;;;;;;;;;;5046604;28;20064;-78
2023/05/22 11:45:12;;;;;;;18.42;12.27;;;;;;;;;;5055614;28;20037;-78
2023/05/22 11:47:38;;;;;;;17.35;12.35;;;;;;;;;;5041658;28;20054;-78
2023/05/22 11:50:05;;;;;;;19.98;12.60;;;;;;;;;;5015927;28;20128;-77
2023/05/22 11:52:32;;;;;;;18.27;12.77;;;;;;;;;;5049676;28;20045;-77
2023/05/22 11:54:58;;;;;;;18.45;12.73;;;;;;;;;;5033918;28;20056;-77
2023/05/22 11:57:25;;;;;;;18.95;13.30;;;;;;;;;;5048799;28;20495;-77
2023/05/22 11:59:51;;;;;;;17.52;12.00;;;;;;;;;;5036728;28;20462;-77
2023/05/22 12:02:18;;;;;;;17.77;12.77;;;;;;;;;;5049999;28;20099;-77
2023/05/22 12:04:44;;;;;;;18.17;12.70;;;;;;;;;;5050882;28;20037;-77
2023/05/22 12:07:10;;;;;;;20.60;12.45;;;;;;;;;;5014759;28;20123;-77
2023/05/22 12:09:39;;;;;;;20.08;12.73;;;;;;;;;;5055007;28;20087;-77
2023/05/22 12:12:05;;;;;;;18.33;12.30;;;;;;;;;;5033798;28;20413;-77
2023/05/22 12:14:31;;;;;;;22.40;12.73;;;;;;;;;;5036579;28;20049;-77
2023/05/22 12:16:58;;;;;;;15.98;11.93;;;;;;;;;;5035710;28;20056;-77
2023/05/22 12:19:25;;;;;;;23.55;12.30;;;;;;;;;;5031543;28;20389;-77
2023/05/22 12:21:51;;;;;;;20.85;13.73;;;;;;;;;;5030723;28;20040;-77
2023/05/22 12:24:22;;;;;;;16.52;12.38;;;;;;;;;;5029620;28;20146;-77
2023/05/22 12:26:55;;;;;;;19.15;13.73;;;;;;;;;;5049947;28;20060;-77
2023/05/22 12:29:24;;;;;;;15.93;11.75;;;;;;;;;;5049650;28;20060;-78
2023/05/22 12:32:00;;;;;;;19.88;12.88;;;;;;;;;;5041201;28;20590;-77
2023/05/22 12:34:26;;;;;;;19.35;12.65;;;;;;;;;;5035270;28;20052;-77
2023/05/22 12:36:52;;;;;;;17.83;12.55;;;;;;;;;;5043865;28;20037;-76
2023/05/22 12:39:18;;;;;;;17.30;11.70;;;;;;;;;;5048313;28;20037;-76
2023/05/22 12:41:45;;;;;;;18.52;13.38;;;;;;;;;;5053407;28;20376;-76
2023/05/22 12:44:12;;;;;;;17.85;12.60;;;;;;;;;;5053591;28;20037;-76
2023/05/22 12:46:38;;;;;;;18.98;13.07;;;;;;;;;;5053948;28;20047;-76
2023/05/22 12:49:04;;;;;;;17.60;12.50;;;;;;;;;;5053996;28;20048;-76
2023/05/22 12:51:31;;;;;;;18.52;13.65;;;;;;;;;;5041506;28;20048;-76
2023/05/22 12:54:01;;;;;;;15.73;12.73;;;;;;;;;;5052738;28;20037;-76
2023/05/22 12:56:28;;;;;;;19.83;13.52;;;;;;;;;;5053239;28;20376;-77
2023/05/22 12:58:56;;;;;;;18.92;13.50;;;;;;;;;;5031548;28;20124;-78
2023/05/22 13:01:23;;;;;;;17.77;13.73;;;;;;;;;;5031243;28;20107;-77
2023/05/22 13:03:49;;;;;;;20.13;13.95;;;;;;;;;;5053614;28;20091;-77
2023/05/22 13:06:16;;;;;;;18.75;13.57;;;;;;;;;;5023850;28;20041;-77
2023/05/22 13:08:42;;;;;;;16.30;12.82;;;;;;;;;;5045048;28;20045;-77
2023/05/22 13:11:09;;;;;;;18.85;13.80;;;;;;;;;;5051349;28;20080;-77
2023/05/22 13:13:35;;;;;;;18.00;12.80;;;;;;;;;;5048873;28;20049;-77
2023/05/22 13:16:01;;;;;;;18.80;13.55;;;;;;;;;;5046202;28;20037;-77
2023/05/22 13:18:27;;;;;;;17.80;14.02;;;;;;;;;;5018663;28;20128;-77
2023/05/22 13:20:55;;;;;;;22.90;14.48;;;;;;;;;;5026497;28;20116;-77
2023/05/22 13:23:21;;;;;;;18.60;14.10;;;;;;;;;;5036321;28;20495;-78
2023/05/22 13:25:47;;;;;;;22.08;14.38;;;;;;;;;;5049430;28;20064;-77
2023/05/22 13:28:13;;;;;;;16.38;12.77;;;;;;;;;;5044546;28;20484;-78
2023/05/22 13:30:39;;;;;;;19.77;13.23;;;;;;;;;;5034821;28;20040;-77
2023/05/22 13:33:05;;;;;;;19.98;13.15;;;;;;;;;;5048266;28;20041;-77
2023/05/22 13:35:31;;;;;;;15.52;12.30;;;;;;;;;;5054303;28;20052;-77
2023/05/22 13:37:57;;;;;;;20.45;13.02;;;;;;;;;;5028634;28;20046;-77
2023/05/22 13:40:23;;;;;;;22.13;12.88;;;;;;;;;;5035540;28;20037;-78
2023/05/22 13:42:51;;;;;;;21.73;13.02;;;;;;;;;;5037698;28;20474;-77
2023/05/22 13:45:17;;;;;;;19.48;13.23;;;;;;;;;;5038064;28;20499;-77
2023/05/22 13:47:46;;;;;;;23.02;14.25;;;;;;;;;;5028797;28;20049;-77
2023/05/22 13:50:12;;;;;;;18.90;12.63;;;;;;;;;;5035378;28;20133;-77
2023/05/22 13:52:38;;;;;;;18.38;13.15;;;;;;;;;;5034982;28;20147;-77
2023/05/22 13:55:04;;;;;;;21.75;14.07;;;;;;;;;;5032335;28;20482;-77
2023/05/22 13:57:30;;;;;;;20.38;13.60;;;;;;;;;;5034846;28;20045;-77
2023/05/22 13:59:56;;;;;;;18.90;13.07;;;;;;;;;;5035348;28;20045;-77
2023/05/22 14:02:22;;;;;;;17.85;13.35;;;;;;;;;;5051772;28;20134;-77
2023/05/22 14:04:50;;;;;;;17.92;12.32;;;;;;;;;;5031635;28;20199;-81
2023/05/22 14:07:16;;;;;;;18.80;13.15;;;;;;;;;;5032867;28;20077;-79
2023/05/22 14:09:42;;;;;;;19.40;12.68;;;;;;;;;;5045133;28;20060;-77
2023/05/22 14:12:08;;;;;;;19.27;13.00;;;;;;;;;;5029115;28;20103;-77
2023/05/22 14:14:34;;;;;;;18.85;12.38;;;;;;;;;;5030513;28;20415;-77
2023/05/22 14:17:00;;;;;;;20.42;12.73;;;;;;;;;;5026730;28;20356;-77
2023/05/22 14:19:26;;;;;;;20.40;12.60;;;;;;;;;;5031549;28;20128;-77
2023/05/22 14:21:52;;;;;;;17.70;12.90;;;;;;;;;;5032151;28;20073;-77